Terminal Aerodrome Forecast
Issued by NWS

Home | Current Version | Previous Version | Text Only | Print | Product List | Glossary On
Versions: 1 2 3 4 5 6 7 8 9 10 11 12 13 14 15 16 17 18 19
000
FTUS43 KIND 162300
TAFHUF
TAF
KHUF 162320Z 1700/1724 VRB03KT P6SM SCT040
     FM170800 00000KT 3SM BR BCFG FEW040
     FM171300 VRB03KT P6SM SCT035
     FM171600 24006KT P6SM BKN045=

USA.gov is the U.S. government's official web portal to all federal, state and local government web resources and services.